sensor_id;sensor_type;location;lat;lon;timestamp;pressure;altitude;pressure_sealevel;temperature;humidity
57859;BME280;49153;45.568;11.894;2023-01-29T00:00:15;102220.16;;;2.28;69.62
57859;BME280;49153;45.568;11.894;2023-01-29T00:02:41;102193.53;;;2.07;69.51
57859;BME280;49153;45.568;11.894;2023-01-29T00:05:10;102214.19;;;2.20;69.30
57859;BME280;49153;45.568;11.894;2023-01-29T00:07:36;102200.53;;;2.02;69.93
57859;BME280;49153;45.568;11.894;2023-01-29T00:10:01;102232.44;;;2.18;69.46
57859;BME280;49153;45.568;11.894;2023-01-29T00:12:26;102234.25;;;2.11;69.57
57859;BME280;49153;45.568;11.894;2023-01-29T00:14:52;102211.91;;;1.95;69.53
57859;BME280;49153;45.568;11.894;2023-01-29T00:17:19;102229.06;;;2.10;70.12
57859;BME280;49153;45.568;11.894;2023-01-29T00:19:47;102208.38;;;2.01;69.69
57859;BME280;49153;45.568;11.894;2023-01-29T00:22:12;102209.28;;;1.97;69.61
57859;BME280;49153;45.568;11.894;2023-01-29T00:24:53;102230.88;;;2.03;70.21
57859;BME280;49153;45.568;11.894;2023-01-29T00:27:19;102199.91;;;1.82;70.39
57859;BME280;49153;45.568;11.894;2023-01-29T00:29:44;102210.25;;;1.87;70.42
57859;BME280;49153;45.568;11.894;2023-01-29T00:32:30;102204.31;;;1.77;70.63
57859;BME280;49153;45.568;11.894;2023-01-29T00:34:56;102237.13;;;1.87;70.70
57859;BME280;49153;45.568;11.894;2023-01-29T00:37:21;102231.94;;;1.86;70.73
57859;BME280;49153;45.568;11.894;2023-01-29T00:39:47;102231.13;;;1.84;70.84
57859;BME280;49153;45.568;11.894;2023-01-29T00:42:12;102220.72;;;1.81;70.92
57859;BME280;49153;45.568;11.894;2023-01-29T00:44:56;102242.34;;;1.87;70.39
57859;BME280;49153;45.568;11.894;2023-01-29T00:47:21;102212.22;;;1.65;70.45
57859;BME280;49153;45.568;11.894;2023-01-29T00:49:59;102229.56;;;1.67;70.75
57859;BME280;49153;45.568;11.894;2023-01-29T00:52:25;102206.28;;;1.54;70.70
57859;BME280;49153;45.568;11.894;2023-01-29T00:54:58;102220.03;;;1.65;70.82
57859;BME280;49153;45.568;11.894;2023-01-29T00:57:26;102216.56;;;1.66;70.92
57859;BME280;49153;45.568;11.894;2023-01-29T00:59:52;102246.69;;;1.85;71.49
57859;BME280;49153;45.568;11.894;2023-01-29T01:02:19;102238.06;;;1.80;70.90
57859;BME280;49153;45.568;11.894;2023-01-29T01:05:04;102250.19;;;1.83;70.68
57859;BME280;49153;45.568;11.894;2023-01-29T01:07:32;102242.41;;;1.81;70.58
57859;BME280;49153;45.568;11.894;2023-01-29T01:09:58;102255.34;;;1.86;70.92
57859;BME280;49153;45.568;11.894;2023-01-29T01:12:41;102221.69;;;1.72;70.98
57859;BME280;49153;45.568;11.894;2023-01-29T01:15:08;102243.22;;;1.88;70.59
57859;BME280;49153;45.568;11.894;2023-01-29T01:17:33;102224.25;;;1.75;70.39
57859;BME280;49153;45.568;11.894;2023-01-29T01:19:59;102233.72;;;1.82;70.95
57859;BME280;49153;45.568;11.894;2023-01-29T01:22:24;102250.94;;;1.94;71.09
57859;BME280;49153;45.568;11.894;2023-01-29T01:24:50;102225.16;;;1.74;71.18
57859;BME280;49153;45.568;11.894;2023-01-29T01:27:15;102248.38;;;1.91;71.21
57859;BME280;49153;45.568;11.894;2023-01-29T01:29:41;102260.44;;;1.98;71.08
57859;BME280;49153;45.568;11.894;2023-01-29T01:32:08;102235.41;;;1.86;71.27
57859;BME280;49153;45.568;11.894;2023-01-29T01:34:34;102237.13;;;1.87;70.67
57859;BME280;49153;45.568;11.894;2023-01-29T01:36:59;102219.00;;;1.81;71.64
57859;BME280;49153;45.568;11.894;2023-01-29T01:39:25;102210.44;;;1.72;70.78
57859;BME280;49153;45.568;11.894;2023-01-29T01:41:51;102249.22;;;1.94;70.93
57859;BME280;49153;45.568;11.894;2023-01-29T01:47:42;102249.16;;;2.00;71.24
57859;BME280;49153;45.568;11.894;2023-01-29T01:52:47;102223.28;;;1.85;71.03
57859;BME280;49153;45.568;11.894;2023-01-29T01:55:16;102248.28;;;1.98;71.31
57859;BME280;49153;45.568;11.894;2023-01-29T01:57:44;102248.22;;;2.03;71.16
57859;BME280;49153;45.568;11.894;2023-01-29T02:00:15;102228.47;;;1.88;71.23
57859;BME280;49153;45.568;11.894;2023-01-29T02:02:44;102231.88;;;1.93;71.83
57859;BME280;49153;45.568;11.894;2023-01-29T02:05:33;102219.72;;;1.94;71.46
57859;BME280;49153;45.568;11.894;2023-01-29T02:08:25;102223.13;;;2.00;71.32
57859;BME280;49153;45.568;11.894;2023-01-29T02:11:11;102240.28;;;2.17;71.38
57859;BME280;49153;45.568;11.894;2023-01-29T02:13:36;102225.53;;;2.14;71.18
57859;BME280;49153;45.568;11.894;2023-01-29T02:16:02;102232.34;;;2.26;71.21
57859;BME280;49153;45.568;11.894;2023-01-29T02:18:27;102241.03;;;2.23;70.85
57859;BME280;49153;45.568;11.894;2023-01-29T02:24:10;102241.78;;;2.33;71.15
57859;BME280;49153;45.568;11.894;2023-01-29T02:27:06;102246.97;;;2.36;70.97
57859;BME280;49153;45.568;11.894;2023-01-29T02:32:19;102248.69;;;2.37;71.42
57859;BME280;49153;45.568;11.894;2023-01-29T02:34:55;102253.81;;;2.43;71.46
57859;BME280;49153;45.568;11.894;2023-01-29T02:40:53;102232.28;;;2.30;71.65
57859;BME280;49153;45.568;11.894;2023-01-29T02:43:36;102259.03;;;2.43;71.61
57859;BME280;49153;45.568;11.894;2023-01-29T02:46:26;102272.00;;;2.44;71.40
57859;BME280;49153;45.568;11.894;2023-01-29T02:49:09;102259.03;;;2.43;71.02
57859;BME280;49153;45.568;11.894;2023-01-29T02:51:45;102244.53;;;2.22;71.22
57859;BME280;49153;45.568;11.894;2023-01-29T02:54:32;102262.59;;;2.33;72.11
57859;BME280;49153;45.568;11.894;2023-01-29T02:57:29;102277.28;;;2.40;71.88
57859;BME280;49153;45.568;11.894;2023-01-29T03:00:02;102274.69;;;2.40;71.63
57859;BME280;49153;45.568;11.894;2023-01-29T03:05:08;102278.94;;;2.47;72.23
57859;BME280;49153;45.568;11.894;2023-01-29T03:07:40;102252.91;;;2.45;72.37
57859;BME280;49153;45.568;11.894;2023-01-29T03:10:35;102235.75;;;2.32;71.59
57859;BME280;49153;45.568;11.894;2023-01-29T03:13:06;102246.88;;;2.42;72.01
57859;BME280;49153;45.568;11.894;2023-01-29T03:15:38;102263.19;;;2.54;72.31
57859;BME280;49153;45.568;11.894;2023-01-29T03:18:22;102270.06;;;2.60;71.66
57859;BME280;49153;45.568;11.894;2023-01-29T03:20:57;102263.16;;;2.59;71.91
57859;BME280;49153;45.568;11.894;2023-01-29T03:23:32;102245.88;;;2.53;71.81
57859;BME280;49153;45.568;11.894;2023-01-29T03:26:20;102255.28;;;2.62;72.33
57859;BME280;49153;45.568;11.894;2023-01-29T03:29:05;102254.34;;;2.68;72.31
57859;BME280;49153;45.568;11.894;2023-01-29T03:31:52;102230.19;;;2.55;71.82
57859;BME280;49153;45.568;11.894;2023-01-29T03:34:42;102265.53;;;2.74;71.81
57859;BME280;49153;45.568;11.894;2023-01-29T03:37:28;102239.75;;;2.56;72.03
57859;BME280;49153;45.568;11.894;2023-01-29T03:39:54;102260.38;;;2.70;71.20
57859;BME280;49153;45.568;11.894;2023-01-29T03:42:28;102267.25;;;2.75;71.28
57859;BME280;49153;45.568;11.894;2023-01-29T03:45:19;102269.84;;;2.77;72.09
57859;BME280;49153;45.568;11.894;2023-01-29T03:52:49;102275.91;;;2.77;71.66
57859;BME280;49153;45.568;11.894;2023-01-29T03:58:15;102282.84;;;2.78;71.97
57859;BME280;49153;45.568;11.894;2023-01-29T04:00:56;102277.72;;;2.72;71.96
57859;BME280;49153;45.568;11.894;2023-01-29T04:08:33;102298.50;;;2.77;72.11
57859;BME280;49153;45.568;11.894;2023-01-29T04:11:02;102295.06;;;2.75;72.41
57859;BME280;49153;45.568;11.894;2023-01-29T04:13:30;102290.75;;;2.71;72.31
57859;BME280;49153;45.568;11.894;2023-01-29T04:15:59;102293.28;;;2.75;72.64
57859;BME280;49153;45.568;11.894;2023-01-29T04:18:25;102279.53;;;2.67;72.11
57859;BME280;49153;45.568;11.894;2023-01-29T04:20:51;102289.00;;;2.74;71.98
57859;BME280;49153;45.568;11.894;2023-01-29T04:23:23;102276.00;;;2.71;72.17
57859;BME280;49153;45.568;11.894;2023-01-29T04:26:08;102281.19;;;2.74;72.31
57859;BME280;49153;45.568;11.894;2023-01-29T04:31:22;102281.13;;;2.77;72.12
57859;BME280;49153;45.568;11.894;2023-01-29T04:34:12;102289.72;;;2.85;72.34
57859;BME280;49153;45.568;11.894;2023-01-29T04:39:44;102274.16;;;2.79;73.07
57859;BME280;49153;45.568;11.894;2023-01-29T04:42:33;102289.59;;;2.91;72.25
57859;BME280;49153;45.568;11.894;2023-01-29T04:45:03;102289.59;;;2.91;73.10
57859;BME280;49153;45.568;11.894;2023-01-29T04:50:16;102272.28;;;2.87;72.27
57859;BME280;49153;45.568;11.894;2023-01-29T04:58:11;102265.34;;;2.86;72.58
57859;BME280;49153;45.568;11.894;2023-01-29T05:00:43;102279.16;;;2.91;73.03
57859;BME280;49153;45.568;11.894;2023-01-29T05:03:14;102285.97;;;3.02;72.41
57859;BME280;49153;45.568;11.894;2023-01-29T05:05:44;102292.91;;;3.03;72.52
57859;BME280;49153;45.568;11.894;2023-01-29T05:08:11;102268.84;;;2.85;72.17
57859;BME280;49153;45.568;11.894;2023-01-29T05:10:38;102267.06;;;2.89;72.58
57859;BME280;49153;45.568;11.894;2023-01-29T05:13:05;102292.88;;;3.04;72.24
57859;BME280;49153;45.568;11.894;2023-01-29T05:15:43;102266.28;;;2.82;72.03
57859;BME280;49153;45.568;11.894;2023-01-29T05:18:08;102282.63;;;2.93;71.88
57859;BME280;49153;45.568;11.894;2023-01-29T05:20:39;102269.69;;;2.86;72.08
57859;BME280;49153;45.568;11.894;2023-01-29T05:23:15;102294.78;;;2.94;71.87
57859;BME280;49153;45.568;11.894;2023-01-29T05:25:41;102273.25;;;2.80;72.42
57859;BME280;49153;45.568;11.894;2023-01-29T05:28:08;102275.03;;;2.77;72.44
57859;BME280;49153;45.568;11.894;2023-01-29T05:30:42;102268.16;;;2.73;72.50
57859;BME280;49153;45.568;11.894;2023-01-29T05:33:20;102291.38;;;2.88;71.95
57859;BME280;49153;45.568;11.894;2023-01-29T05:35:46;102287.91;;;2.90;72.52
57859;BME280;49153;45.568;11.894;2023-01-29T05:38:12;102289.56;;;2.94;72.58
57859;BME280;49153;45.568;11.894;2023-01-29T05:40:38;102281.78;;;2.91;71.82
57859;BME280;49153;45.568;11.894;2023-01-29T05:43:04;102302.53;;;2.97;72.52
57859;BME280;49153;45.568;11.894;2023-01-29T05:45:30;102307.78;;;2.96;72.82
57859;BME280;49153;45.568;11.894;2023-01-29T05:47:57;102299.16;;;2.91;72.39
57859;BME280;49153;45.568;11.894;2023-01-29T05:50:23;102308.69;;;2.93;72.56
57859;BME280;49153;45.568;11.894;2023-01-29T05:52:49;102303.53;;;2.90;73.11
57859;BME280;49153;45.568;11.894;2023-01-29T05:55:14;102281.97;;;2.78;72.92
57859;BME280;49153;45.568;11.894;2023-01-29T05:57:40;102285.41;;;2.81;73.04
57859;BME280;49153;45.568;11.894;2023-01-29T06:00:07;102290.59;;;2.84;72.84
57859;BME280;49153;45.568;11.894;2023-01-29T06:02:33;102281.97;;;2.79;72.98
57859;BME280;49153;45.568;11.894;2023-01-29T06:04:59;102281.03;;;2.83;73.38
57859;BME280;49153;45.568;11.894;2023-01-29T06:07:24;102294.91;;;2.85;73.08
57859;BME280;49153;45.568;11.894;2023-01-29T06:09:50;102283.66;;;2.80;73.28
57859;BME280;49153;45.568;11.894;2023-01-29T06:12:15;102289.72;;;2.84;73.45
57859;BME280;49153;45.568;11.894;2023-01-29T06:14:40;102293.97;;;2.89;73.42
57859;BME280;49153;45.568;11.894;2023-01-29T06:17:06;102312.09;;;2.98;73.14
57859;BME280;49153;45.568;11.894;2023-01-29T06:19:31;102306.97;;;2.91;73.12
57859;BME280;49153;45.568;11.894;2023-01-29T06:21:57;102281.19;;;2.74;73.65
57859;BME280;49153;45.568;11.894;2023-01-29T06:24:22;102285.53;;;2.72;72.76
57859;BME280;49153;45.568;11.894;2023-01-29T06:26:47;102310.56;;;2.85;72.98
57859;BME280;49153;45.568;11.894;2023-01-29T06:29:13;102302.84;;;2.76;73.60
57859;BME280;49153;45.568;11.894;2023-01-29T06:31:38;102314.97;;;2.79;73.84
57859;BME280;49153;45.568;11.894;2023-01-29T06:34:05;102321.88;;;2.83;73.23
57859;BME280;49153;45.568;11.894;2023-01-29T06:36:31;102304.63;;;2.74;73.90
57859;BME280;49153;45.568;11.894;2023-01-29T06:38:56;102317.44;;;2.89;74.04
57859;BME280;49153;45.568;11.894;2023-01-29T06:41:22;102307.13;;;2.80;73.59
57859;BME280;49153;45.568;11.894;2023-01-29T06:43:49;102313.19;;;2.82;73.49
57859;BME280;49153;45.568;11.894;2023-01-29T06:46:15;102336.50;;;2.91;73.62
57859;BME280;49153;45.568;11.894;2023-01-29T06:48:41;102308.94;;;2.75;73.67
57859;BME280;49153;45.568;11.894;2023-01-29T06:51:08;102342.63;;;2.89;74.00
57859;BME280;49153;45.568;11.894;2023-01-29T06:53:35;102335.78;;;2.80;73.45
57859;BME280;49153;45.568;11.894;2023-01-29T06:56:01;102362.53;;;2.94;74.65
57859;BME280;49153;45.568;11.894;2023-01-29T06:58:26;102328.94;;;2.75;73.63
57859;BME280;49153;45.568;11.894;2023-01-29T07:00:52;102316.78;;;2.74;74.09
57859;BME280;49153;45.568;11.894;2023-01-29T07:03:17;102342.72;;;2.83;74.41
57859;BME280;49153;45.568;11.894;2023-01-29T07:05:50;102341.84;;;2.82;74.95
57859;BME280;49153;45.568;11.894;2023-01-29T07:08:17;102334.09;;;2.76;74.74
57859;BME280;49153;45.568;11.894;2023-01-29T07:10:43;102361.63;;;2.97;74.74
57859;BME280;49153;45.568;11.894;2023-01-29T07:13:08;102340.97;;;2.83;74.98
57859;BME280;49153;45.568;11.894;2023-01-29T07:15:34;102323.66;;;2.79;74.41
57859;BME280;49153;45.568;11.894;2023-01-29T07:18:01;102365.00;;;3.05;74.57
57859;BME280;49153;45.568;11.894;2023-01-29T07:20:29;102349.50;;;2.96;74.72
57859;BME280;49153;45.568;11.894;2023-01-29T07:22:56;102384.84;;;3.14;74.79
57859;BME280;49153;45.568;11.894;2023-01-29T07:25:22;102362.47;;;3.01;74.48
57859;BME280;49153;45.568;11.894;2023-01-29T07:27:47;102376.38;;;2.96;75.19
57859;BME280;49153;45.568;11.894;2023-01-29T07:30:14;102397.06;;;3.12;74.46
57859;BME280;49153;45.568;11.894;2023-01-29T07:32:39;102407.38;;;3.18;75.37
57859;BME280;49153;45.568;11.894;2023-01-29T07:35:05;102390.19;;;3.05;75.31
57859;BME280;49153;45.568;11.894;2023-01-29T07:37:30;102415.22;;;3.18;76.17
57859;BME280;49153;45.568;11.894;2023-01-29T07:39:56;102395.41;;;3.06;75.93
57859;BME280;49153;45.568;11.894;2023-01-29T07:42:21;102417.81;;;3.18;75.79
57859;BME280;49153;45.568;11.894;2023-01-29T07:44:47;102400.47;;;3.15;76.34
57859;BME280;49153;45.568;11.894;2023-01-29T07:47:13;102401.28;;;3.19;75.98
57859;BME280;49153;45.568;11.894;2023-01-29T07:49:38;102409.03;;;3.25;75.78
57859;BME280;49153;45.568;11.894;2023-01-29T07:52:04;102403.81;;;3.25;75.39
57859;BME280;49153;45.568;11.894;2023-01-29T07:54:30;102407.38;;;3.21;75.39
57859;BME280;49153;45.568;11.894;2023-01-29T07:56:55;102414.09;;;3.37;76.00
57859;BME280;49153;45.568;11.894;2023-01-29T07:59:21;102393.28;;;3.32;76.17
57859;BME280;49153;45.568;11.894;2023-01-29T08:01:52;102432.97;;;3.54;75.98
57859;BME280;49153;45.568;11.894;2023-01-29T08:04:17;102438.13;;;3.57;75.52
57859;BME280;49153;45.568;11.894;2023-01-29T08:06:43;102436.38;;;3.59;75.67
57859;BME280;49153;45.568;11.894;2023-01-29T08:09:09;102430.16;;;3.66;75.24
57859;BME280;49153;45.568;11.894;2023-01-29T08:11:34;102404.22;;;3.56;75.23
57859;BME280;49153;45.568;11.894;2023-01-29T08:14:00;102404.19;;;3.59;75.22
57859;BME280;49153;45.568;11.894;2023-01-29T08:16:25;102401.53;;;3.62;74.62
57859;BME280;49153;45.568;11.894;2023-01-29T08:18:51;102417.09;;;3.66;74.71
57859;BME280;49153;45.568;11.894;2023-01-29T08:21:16;102404.13;;;3.62;74.54
57859;BME280;49153;45.568;11.894;2023-01-29T08:23:41;102420.56;;;3.70;74.14
57859;BME280;49153;45.568;11.894;2023-01-29T08:26:08;102436.06;;;3.77;74.37
57859;BME280;49153;45.568;11.894;2023-01-29T08:28:33;102441.91;;;3.92;74.13
57859;BME280;49153;45.568;11.894;2023-01-29T08:30:59;102451.22;;;4.08;74.82
57859;BME280;49153;45.568;11.894;2023-01-29T08:33:25;102439.88;;;4.12;74.83
57859;BME280;49153;45.568;11.894;2023-01-29T08:35:53;102417.22;;;4.12;74.79
57859;BME280;49153;45.568;11.894;2023-01-29T08:38:19;102433.25;;;4.40;74.16
57859;BME280;49153;45.568;11.894;2023-01-29T08:40:44;102434.69;;;4.56;73.88
57859;BME280;49153;45.568;11.894;2023-01-29T08:43:11;102449.91;;;4.81;73.45
57859;BME280;49153;45.568;11.894;2023-01-29T08:45:40;102432.53;;;4.77;72.79
57859;BME280;49153;45.568;11.894;2023-01-29T08:48:06;102418.53;;;4.81;72.13
57859;BME280;49153;45.568;11.894;2023-01-29T08:50:32;102441.47;;;5.09;71.96
57859;BME280;49153;45.568;11.894;2023-01-29T08:53:00;102438.59;;;5.20;71.53
57859;BME280;49153;45.568;11.894;2023-01-29T08:55:27;102439.34;;;5.27;70.98
57859;BME280;49153;45.568;11.894;2023-01-29T08:57:53;102433.88;;;5.37;68.91
57859;BME280;49153;45.568;11.894;2023-01-29T09:00:19;102434.66;;;5.41;68.25
57859;BME280;49153;45.568;11.894;2023-01-29T09:02:44;102437.13;;;5.48;68.61
57859;BME280;49153;45.568;11.894;2023-01-29T09:05:10;102443.88;;;5.57;67.53
57859;BME280;49153;45.568;11.894;2023-01-29T09:07:35;102454.31;;;5.60;66.42
57859;BME280;49153;45.568;11.894;2023-01-29T09:10:01;102446.41;;;5.62;67.14
57859;BME280;49153;45.568;11.894;2023-01-29T09:12:27;102451.50;;;5.68;66.80
57859;BME280;49153;45.568;11.894;2023-01-29T09:14:52;102451.34;;;5.74;66.95
57859;BME280;49153;45.568;11.894;2023-01-29T09:17:18;102458.09;;;5.84;66.25
57859;BME280;49153;45.568;11.894;2023-01-29T09:19:44;102455.38;;;5.88;65.69
57859;BME280;49153;45.568;11.894;2023-01-29T09:22:09;102445.78;;;5.89;64.22
57859;BME280;49153;45.568;11.894;2023-01-29T09:24:35;102454.31;;;5.97;64.67
57859;BME280;49153;45.568;11.894;2023-01-29T09:27:00;102457.75;;;5.99;61.83
57859;BME280;49153;45.568;11.894;2023-01-29T09:29:26;102456.81;;;6.02;63.23
57859;BME280;49153;45.568;11.894;2023-01-29T09:31:51;102456.59;;;6.11;64.18
57859;BME280;49153;45.568;11.894;2023-01-29T09:34:17;102451.22;;;6.15;63.98
57859;BME280;49153;45.568;11.894;2023-01-29T09:36:42;102462.41;;;6.23;63.49
57859;BME280;49153;45.568;11.894;2023-01-29T09:39:08;102454.44;;;6.26;63.48
57859;BME280;49153;45.568;11.894;2023-01-29T09:44:40;102452.13;;;6.48;63.90
57859;BME280;49153;45.568;11.894;2023-01-29T09:47:13;102452.69;;;6.59;60.81
57859;BME280;49153;45.568;11.894;2023-01-29T09:49:53;102457.06;;;6.60;61.02
57859;BME280;49153;45.568;11.894;2023-01-29T09:52:23;102459.59;;;6.62;61.34
57859;BME280;49153;45.568;11.894;2023-01-29T10:00:19;102443.22;;;6.86;61.44
57859;BME280;49153;45.568;11.894;2023-01-29T10:03:19;102455.94;;;7.00;61.38
57859;BME280;49153;45.568;11.894;2023-01-29T10:08:39;102442.41;;;7.13;60.65
57859;BME280;49153;45.568;11.894;2023-01-29T10:11:27;102440.25;;;7.28;61.23
57859;BME280;49153;45.568;11.894;2023-01-29T10:26:57;102410.22;;;7.90;58.81
57859;BME280;49153;45.568;11.894;2023-01-29T10:29:24;102411.75;;;7.97;59.41
57859;BME280;49153;45.568;11.894;2023-01-29T10:31:56;102412.00;;;8.15;59.68
57859;BME280;49153;45.568;11.894;2023-01-29T10:34:42;102404.78;;;8.21;57.97
57859;BME280;49153;45.568;11.894;2023-01-29T10:37:22;102410.59;;;8.31;58.44
57859;BME280;49153;45.568;11.894;2023-01-29T10:39:49;102403.41;;;8.36;58.23
57859;BME280;49153;45.568;11.894;2023-01-29T10:42:43;102405.56;;;8.50;58.19
57859;BME280;49153;45.568;11.894;2023-01-29T10:45:29;102396.31;;;8.63;57.86
57859;BME280;49153;45.568;11.894;2023-01-29T10:51:25;102384.19;;;8.59;56.97
57859;BME280;49153;45.568;11.894;2023-01-29T10:57:33;102372.00;;;8.79;55.21
57859;BME280;49153;45.568;11.894;2023-01-29T11:00:12;102359.59;;;8.83;55.58
57859;BME280;49153;45.568;11.894;2023-01-29T11:02:44;102361.41;;;8.82;55.22
57859;BME280;49153;45.568;11.894;2023-01-29T11:05:32;102355.50;;;8.76;54.71
57859;BME280;49153;45.568;11.894;2023-01-29T11:08:05;102351.69;;;8.83;54.73
57859;BME280;49153;45.568;11.894;2023-01-29T11:10:37;102334.81;;;8.88;55.33
57859;BME280;49153;45.568;11.894;2023-01-29T11:13:12;102343.91;;;9.03;54.84
57859;BME280;49153;45.568;11.894;2023-01-29T11:15:38;102330.09;;;9.20;55.73
57859;BME280;49153;45.568;11.894;2023-01-29T11:18:12;102332.13;;;9.35;55.22
57859;BME280;49153;45.568;11.894;2023-01-29T11:20:41;102318.81;;;9.38;54.62
57859;BME280;49153;45.568;11.894;2023-01-29T11:25:56;102312.34;;;9.25;53.65
57859;BME280;49153;45.568;11.894;2023-01-29T11:28:40;102315.50;;;9.33;53.91
57859;BME280;49153;45.568;11.894;2023-01-29T11:31:21;102314.34;;;9.40;53.03
57859;BME280;49153;45.568;11.894;2023-01-29T11:33:49;102312.38;;;9.45;53.34
57859;BME280;49153;45.568;11.894;2023-01-29T11:39:18;102297.50;;;9.44;52.70
57859;BME280;49153;45.568;11.894;2023-01-29T11:41:48;102296.38;;;9.50;52.66
57859;BME280;49153;45.568;11.894;2023-01-29T11:44:18;102283.16;;;9.51;52.95
57859;BME280;49153;45.568;11.894;2023-01-29T11:46:44;102291.31;;;9.65;52.92
57859;BME280;49153;45.568;11.894;2023-01-29T11:49:22;102283.28;;;9.68;52.59
57859;BME280;49153;45.568;11.894;2023-01-29T11:51:51;102275.47;;;9.67;51.90
57859;BME280;49153;45.568;11.894;2023-01-29T11:54:23;102266.56;;;9.69;52.32
57859;BME280;49153;45.568;11.894;2023-01-29T11:56:52;102257.00;;;9.67;52.24
57859;BME280;49153;45.568;11.894;2023-01-29T11:59:36;102254.03;;;9.74;51.49
57859;BME280;49153;45.568;11.894;2023-01-29T12:02:11;102250.47;;;9.75;51.53
57859;BME280;49153;45.568;11.894;2023-01-29T12:04:41;102245.53;;;9.88;53.10
57859;BME280;49153;45.568;11.894;2023-01-29T12:07:14;102250.41;;;9.97;51.86
57859;BME280;49153;45.568;11.894;2023-01-29T12:09:40;102247.50;;;10.03;51.73
57859;BME280;49153;45.568;11.894;2023-01-29T12:12:32;102247.50;;;10.03;51.99
57859;BME280;49153;45.568;11.894;2023-01-29T12:15:14;102238.94;;;9.98;50.96
57859;BME280;49153;45.568;11.894;2023-01-29T12:18:00;102230.16;;;9.98;51.06
57859;BME280;49153;45.568;11.894;2023-01-29T12:20:40;102235.94;;;10.06;51.46
57859;BME280;49153;45.568;11.894;2023-01-29T12:31:44;102218.56;;;10.02;51.51
57859;BME280;49153;45.568;11.894;2023-01-29T12:39:54;102215.50;;;10.11;49.87
57859;BME280;49153;45.568;11.894;2023-01-29T12:42:21;102222.75;;;10.06;50.48
57859;BME280;49153;45.568;11.894;2023-01-29T12:44:51;102226.19;;;10.08;50.68
57859;BME280;49153;45.568;11.894;2023-01-29T12:48:01;102214.50;;;10.13;51.20
57859;BME280;49153;45.568;11.894;2023-01-29T12:50:19;102205.50;;;10.19;51.68
57859;BME280;49153;45.568;11.894;2023-01-29T12:52:52;102206.53;;;10.15;50.54
57859;BME280;49153;45.568;11.894;2023-01-29T12:55:23;102205.09;;;10.08;50.57
57859;BME280;49153;45.568;11.894;2023-01-29T12:58:01;102204.94;;;10.11;50.94
57859;BME280;49153;45.568;11.894;2023-01-29T13:00:31;102200.00;;;10.24;51.11
57859;BME280;49153;45.568;11.894;2023-01-29T13:03:07;102200.31;;;10.36;51.34
57859;BME280;49153;45.568;11.894;2023-01-29T13:05:44;102199.28;;;10.39;50.79
57859;BME280;49153;45.568;11.894;2023-01-29T13:08:16;102194.47;;;10.30;50.85
57859;BME280;49153;45.568;11.894;2023-01-29T13:10:49;102195.59;;;10.24;52.11
57859;BME280;49153;45.568;11.894;2023-01-29T13:13:44;102199.44;;;10.36;50.90
57859;BME280;49153;45.568;11.894;2023-01-29T13:16:18;102205.16;;;10.45;51.18
57859;BME280;49153;45.568;11.894;2023-01-29T13:18:55;102198.00;;;10.47;50.69
57859;BME280;49153;45.568;11.894;2023-01-29T13:21:25;102195.50;;;10.44;50.32
57859;BME280;49153;45.568;11.894;2023-01-29T13:24:02;102181.06;;;10.34;50.67
57859;BME280;49153;45.568;11.894;2023-01-29T13:26:28;102174.63;;;10.21;50.65
57859;BME280;49153;45.568;11.894;2023-01-29T13:28:56;102176.75;;;10.32;51.28
57859;BME280;49153;45.568;11.894;2023-01-29T13:31:31;102184.59;;;10.33;50.88
57859;BME280;49153;45.568;11.894;2023-01-29T13:36:47;102179.78;;;10.24;51.56
57859;BME280;49153;45.568;11.894;2023-01-29T13:39:22;102173.19;;;10.14;50.88
57859;BME280;49153;45.568;11.894;2023-01-29T13:41:50;102169.97;;;10.07;51.05
57859;BME280;49153;45.568;11.894;2023-01-29T13:46:53;102170.19;;;10.03;50.97
57859;BME280;49153;45.568;11.894;2023-01-29T13:49:40;102172.25;;;10.15;51.30
57859;BME280;49153;45.568;11.894;2023-01-29T13:55:07;102158.88;;;10.38;51.84
57859;BME280;49153;45.568;11.894;2023-01-29T14:00:02;102154.78;;;10.50;51.21
57859;BME280;49153;45.568;11.894;2023-01-29T14:02:29;102151.94;;;10.54;51.50
57859;BME280;49153;45.568;11.894;2023-01-29T14:10:28;102145.44;;;10.43;51.38
57859;BME280;49153;45.568;11.894;2023-01-29T14:15:31;102147.41;;;10.39;52.17
57859;BME280;49153;45.568;11.894;2023-01-29T14:20:40;102143.22;;;10.52;52.77
57859;BME280;49153;45.568;11.894;2023-01-29T14:23:07;102143.69;;;10.43;52.37
57859;BME280;49153;45.568;11.894;2023-01-29T14:25:42;102134.16;;;10.22;52.55
57859;BME280;49153;45.568;11.894;2023-01-29T14:28:18;102132.03;;;10.10;53.42
57859;BME280;49153;45.568;11.894;2023-01-29T14:30:47;102133.50;;;10.17;53.72
57859;BME280;49153;45.568;11.894;2023-01-29T14:33:35;102135.56;;;10.29;53.87
57859;BME280;49153;45.568;11.894;2023-01-29T14:36:10;102132.00;;;10.30;54.38
57859;BME280;49153;45.568;11.894;2023-01-29T14:38:37;102134.94;;;10.24;54.63
57859;BME280;49153;45.568;11.894;2023-01-29T14:41:11;102138.56;;;10.22;54.97
57859;BME280;49153;45.568;11.894;2023-01-29T14:43:39;102143.19;;;10.16;55.26
57859;BME280;49153;45.568;11.894;2023-01-29T14:48:57;102148.13;;;10.24;55.31
57859;BME280;49153;45.568;11.894;2023-01-29T14:51:24;102143.38;;;10.12;55.05
57859;BME280;49153;45.568;11.894;2023-01-29T14:54:23;102149.38;;;9.97;55.09
57859;BME280;49153;45.568;11.894;2023-01-29T14:59:21;102133.25;;;9.65;55.70
57859;BME280;49153;45.568;11.894;2023-01-29T15:01:55;102147.34;;;9.64;56.36
57859;BME280;49153;45.568;11.894;2023-01-29T15:04:40;102153.59;;;9.62;56.93
57859;BME280;49153;45.568;11.894;2023-01-29T15:09:52;102140.91;;;9.51;56.58
57859;BME280;49153;45.568;11.894;2023-01-29T15:12:27;102145.69;;;9.42;56.78